Time;durP1;ratioP1;P1;durP2;ratioP2;P2;SDS_P1;SDS_P2;PMS_P1;PMS_P2;Temp;Humidity;BMP_temperature;BMP_pressure;BME280_temperature;BME280_humidity;BME280_pressure;Samples;Min_cycle;Max_cycle;Signal;HPM_P1;HPM_P2
2023/07/15 00:02:58;;;;;;;3.15;1.38;;;;;22.40;99914.00;;;;10097457;29;20282;-75
2023/07/15 00:08:00;;;;;;;2.17;1.52;;;;;22.30;99912.00;;;;10081634;29;20299;-75
2023/07/15 00:13:01;;;;;;;4.43;1.23;;;;;22.10;99905.00;;;;10098267;29;20271;-75
2023/07/15 00:18:03;;;;;;;2.63;1.40;;;;;22.00;99904.00;;;;10097842;29;20220;-75
2023/07/15 00:23:19;;;;;;;2.63;1.40;;;;;21.90;99908.00;;;;10097782;29;20312;-76
2023/07/15 00:28:21;;;;;;;4.47;1.42;;;;;21.90;99918.00;;;;10096453;29;20571;-75
2023/07/15 00:33:23;;;;;;;4.28;1.30;;;;;21.80;99912.00;;;;10096225;29;20207;-79
2023/07/15 00:38:25;;;;;;;3.75;1.25;;;;;21.80;99911.00;;;;10096766;29;20284;-75
2023/07/15 00:43:51;;;;;;;5.80;1.35;;;;;21.80;99921.00;;;;10096389;29;20580;-79
2023/07/15 00:49:18;;;;;;;2.05;1.30;;;;;21.80;99914.00;;;;10080639;29;20199;-79
2023/07/15 00:54:21;;;;;;;4.78;1.65;;;;;21.80;99912.00;;;;10065534;29;20211;-75
2023/07/15 00:59:23;;;;;;;3.65;1.27;;;;;21.90;99927.00;;;;10086365;29;20252;-77
2023/07/15 01:04:26;;;;;;;1.58;1.25;;;;;21.80;99912.00;;;;10102387;29;20294;-75
2023/07/15 01:09:28;;;;;;;3.08;1.33;;;;;21.80;99920.00;;;;10103914;29;20208;-75
2023/07/15 01:14:30;;;;;;;2.13;1.92;;;;;21.90;99922.00;;;;10103632;29;20220;-80
2023/07/15 01:19:31;;;;;;;3.92;1.48;;;;;21.90;99926.00;;;;10070903;29;20228;-78
2023/07/15 01:24:34;;;;;;;3.58;1.63;;;;;21.80;99929.00;;;;10103011;29;20204;-75
2023/07/15 01:29:35;;;;;;;3.15;1.33;;;;;21.80;99931.00;;;;10101496;29;20551;-75
2023/07/15 01:34:37;;;;;;;3.63;1.67;;;;;21.70;99944.00;;;;10102271;29;20192;-76
2023/07/15 01:39:38;;;;;;;2.25;1.30;;;;;21.50;99944.00;;;;10101272;29;20224;-79
2023/07/15 01:44:40;;;;;;;3.28;1.20;;;;;21.20;99952.00;;;;10102234;29;20252;-75
2023/07/15 01:49:42;;;;;;;2.40;1.50;;;;;21.00;99940.00;;;;10102438;29;20546;-79
2023/07/15 01:54:44;;;;;;;1.85;1.45;;;;;20.80;99938.00;;;;10102627;29;20607;-79
2023/07/15 01:59:45;;;;;;;2.92;1.50;;;;;20.70;99944.00;;;;10102229;29;20227;-75
2023/07/15 02:04:47;;;;;;;1.95;1.27;;;;;20.60;99944.00;;;;10071524;29;20208;-76
2023/07/15 02:09:48;;;;;;;1.85;1.45;;;;;20.40;99942.00;;;;10102039;29;20292;-74
2023/07/15 02:14:50;;;;;;;9.23;1.80;;;;;20.30;99940.00;;;;10085451;29;20208;-74
2023/07/15 02:19:51;;;;;;;4.15;1.63;;;;;20.20;99949.00;;;;10086697;29;20223;-79
2023/07/15 02:24:53;;;;;;;4.07;2.03;;;;;20.10;99935.00;;;;10100404;29;20201;-76
2023/07/15 02:29:54;;;;;;;5.53;2.17;;;;;20.00;99940.00;;;;10101410;29;20279;-75
2023/07/15 02:34:55;;;;;;;4.57;1.90;;;;;19.90;99930.00;;;;10099924;29;20211;-75
2023/07/15 02:39:57;;;;;;;2.60;1.38;;;;;19.80;99939.00;;;;10101962;29;20216;-74
2023/07/15 02:45:04;;;;;;;4.95;1.25;;;;;19.70;99937.00;;;;10100659;29;20219;-74
2023/07/15 02:50:08;;;;;;;3.33;1.50;;;;;19.60;99940.00;;;;10099725;29;20267;-75
2023/07/15 02:55:09;;;;;;;3.78;1.15;;;;;19.60;99923.00;;;;10099103;29;20324;-75
2023/07/15 03:00:14;;;;;;;2.42;1.15;;;;;19.60;99915.00;;;;10069207;29;20219;-75
2023/07/15 03:05:16;;;;;;;2.67;1.42;;;;;19.70;99917.00;;;;10098783;29;20229;-79
2023/07/15 03:10:18;;;;;;;3.05;1.20;;;;;19.70;99919.00;;;;10099575;29;20200;-80
2023/07/15 03:15:20;;;;;;;5.53;1.73;;;;;19.70;99923.00;;;;10099828;29;20259;-80
2023/07/15 03:20:23;;;;;;;4.13;1.42;;;;;19.80;99928.00;;;;10099278;29;20540;-80
2023/07/15 03:25:24;;;;;;;2.05;1.30;;;;;19.80;99935.00;;;;10099506;29;20200;-80
2023/07/15 03:30:27;;;;;;;3.25;1.60;;;;;19.70;99937.00;;;;10098562;29;20203;-79
2023/07/15 03:35:28;;;;;;;3.20;1.70;;;;;19.70;99935.00;;;;10097741;29;20228;-75
2023/07/15 03:40:30;;;;;;;3.28;1.40;;;;;19.80;99936.00;;;;10082488;29;20204;-75
2023/07/15 03:45:31;;;;;;;2.40;1.50;;;;;19.90;99940.00;;;;10099523;29;20231;-80
2023/07/15 03:50:35;;;;;;;3.75;1.60;;;;;20.00;99933.00;;;;10098661;29;20200;-78
2023/07/15 03:55:37;;;;;;;2.63;1.60;;;;;20.00;99934.00;;;;10097684;29;20217;-75
2023/07/15 04:00:38;;;;;;;2.00;1.50;;;;;20.10;99935.00;;;;10097334;29;20286;-79
2023/07/15 04:05:40;;;;;;;4.85;1.67;;;;;20.10;99935.00;;;;10099226;29;20202;-75
2023/07/15 04:10:44;;;;;;;2.28;1.80;;;;;20.10;99929.00;;;;10096667;29;20616;-75
2023/07/15 04:15:45;;;;;;;2.38;1.65;;;;;20.10;99928.00;;;;10097739;29;20579;-77
2023/07/15 04:20:47;;;;;;;4.00;1.60;;;;;20.20;99941.00;;;;10098023;29;20204;-77
2023/07/15 04:25:49;;;;;;;3.55;1.70;;;;;20.30;99944.00;;;;10097970;29;20200;-78
2023/07/15 04:30:50;;;;;;;4.15;1.67;;;;;20.60;99952.00;;;;10099252;29;20207;-78
2023/07/15 04:35:52;;;;;;;6.80;1.65;;;;;20.70;99958.00;;;;10097031;29;20743;-74
2023/07/15 04:40:53;;;;;;;3.83;1.42;;;;;20.80;99959.00;;;;10096276;29;20200;-76
2023/07/15 04:45:55;;;;;;;2.78;1.50;;;;;21.00;99966.00;;;;10081596;29;20200;-79
2023/07/15 04:50:56;;;;;;;2.00;1.70;;;;;21.10;99958.00;;;;10081087;29;20592;-75
2023/07/15 04:55:58;;;;;;;4.28;1.60;;;;;21.30;99961.00;;;;10095587;29;20262;-74
2023/07/15 05:00:59;;;;;;;1.90;1.23;;;;;21.40;99962.00;;;;10097017;29;20200;-75
2023/07/15 05:06:01;;;;;;;2.08;1.42;;;;;21.50;99967.00;;;;10080735;29;20200;-75
2023/07/15 05:11:02;;;;;;;5.50;1.30;;;;;21.70;99963.00;;;;10081053;29;20191;-77
2023/07/15 05:16:04;;;;;;;4.55;1.38;;;;;21.90;99967.00;;;;10095218;29;20586;-75
2023/07/15 05:21:05;;;;;;;2.92;1.60;;;;;22.10;99964.00;;;;10095449;29;20278;-77
2023/07/15 05:26:07;;;;;;;2.92;1.50;;;;;22.30;99970.00;;;;10096490;29;20197;-79
2023/07/15 05:31:08;;;;;;;2.00;0.98;;;;;22.50;99989.00;;;;10095608;29;20207;-77
2023/07/15 05:36:09;;;;;;;7.35;1.65;;;;;22.60;100000.00;;;;10094996;29;20228;-76
2023/07/15 05:41:14;;;;;;;3.25;1.30;;;;;22.70;99995.00;;;;10094900;29;20227;-74
2023/07/15 05:46:16;;;;;;;2.75;1.45;;;;;23.00;99979.00;;;;10102228;29;20226;-75
2023/07/15 05:51:17;;;;;;;3.92;1.30;;;;;23.10;99984.00;;;;10102560;29;20659;-74
2023/07/15 05:56:18;;;;;;;3.60;1.38;;;;;23.80;99992.00;;;;10101947;29;20254;-75
2023/07/15 06:01:21;;;;;;;3.55;1.48;;;;;24.00;99993.00;;;;10102270;29;20296;-75
2023/07/15 06:06:22;;;;;;;2.63;1.60;;;;;24.60;99979.00;;;;10101340;29;20200;-79
2023/07/15 06:11:23;;;;;;;4.63;1.58;;;;;25.20;99986.00;;;;10101506;29;20544;-75
2023/07/15 06:16:25;;;;;;;3.80;1.50;;;;;25.20;99993.00;;;;10101263;29;20216;-76
2023/07/15 06:21:27;;;;;;;3.70;1.77;;;;;25.20;99991.00;;;;10101601;29;20616;-75
2023/07/15 06:26:28;;;;;;;2.78;1.50;;;;;24.70;100003.00;;;;10099989;29;20607;-76
2023/07/15 06:31:29;;;;;;;3.22;1.67;;;;;24.60;99995.00;;;;10101205;29;20287;-76
2023/07/15 06:36:30;;;;;;;4.32;1.48;;;;;25.90;99994.00;;;;10101299;29;20211;-75
2023/07/15 06:41:32;;;;;;;4.25;1.50;;;;;26.80;99998.00;;;;10099588;29;20539;-77
2023/07/15 06:46:33;;;;;;;3.58;1.52;;;;;27.00;99990.00;;;;10100448;29;20199;-75
2023/07/15 06:51:35;;;;;;;5.38;1.50;;;;;27.10;99997.00;;;;10099397;29;20256;-75
2023/07/15 06:56:36;;;;;;;4.55;1.73;;;;;26.70;100008.00;;;;10099374;29;20218;-75
2023/07/15 07:01:37;;;;;;;2.05;1.50;;;;;26.90;100001.00;;;;10100918;29;20204;-75
2023/07/15 07:06:39;;;;;;;3.08;1.50;;;;;26.90;99993.00;;;;10099963;29;20656;-75
2023/07/15 07:11:41;;;;;;;3.78;1.63;;;;;27.30;99992.00;;;;10099944;29;20543;-75
2023/07/15 07:16:42;;;;;;;3.03;1.60;;;;;26.80;100010.00;;;;10098581;29;20224;-75
2023/07/15 07:21:43;;;;;;;7.47;1.98;;;;;26.40;99998.00;;;;10099919;29;20200;-75
2023/07/15 07:26:45;;;;;;;7.85;1.77;;;;;26.80;100017.00;;;;10100119;29;20204;-75
2023/07/15 07:31:46;;;;;;;5.78;1.83;;;;;28.40;100029.00;;;;10099839;29;20603;-79
2023/07/15 07:36:48;;;;;;;3.08;1.50;;;;;28.00;100030.00;;;;10098320;29;20224;-79
2023/07/15 07:41:49;;;;;;;3.45;1.83;;;;;29.00;100015.00;;;;10099417;29;20226;-77
2023/07/15 07:46:50;;;;;;;3.95;1.40;;;;;30.10;100007.00;;;;10098260;29;20246;-77
2023/07/15 07:51:52;;;;;;;3.97;1.42;;;;;29.90;100022.00;;;;10098805;29;20204;-76
2023/07/15 07:56:53;;;;;;;3.42;1.80;;;;;29.20;100024.00;;;;10098265;29;20212;-80
2023/07/15 08:01:54;;;;;;;3.00;1.48;;;;;28.50;100025.00;;;;10098460;29;20238;-75
2023/07/15 08:06:56;;;;;;;3.97;1.40;;;;;28.10;100033.00;;;;10097589;29;20232;-76
2023/07/15 08:11:58;;;;;;;2.22;1.40;;;;;29.50;100050.00;;;;10098756;29;20256;-79
2023/07/15 08:17:00;;;;;;;2.83;1.60;;;;;28.70;100047.00;;;;10097604;29;20327;-80
2023/07/15 08:22:01;;;;;;;1.70;1.55;;;;;27.50;100068.00;;;;10098387;29;20566;-76
2023/07/15 08:27:03;;;;;;;3.38;2.10;;;;;26.50;100057.00;;;;10096705;29;20293;-79
2023/07/15 08:32:05;;;;;;;2.95;1.77;;;;;26.70;100073.00;;;;10097514;29;20656;-79
2023/07/15 08:37:06;;;;;;;3.17;1.63;;;;;26.30;100086.00;;;;10097095;29;20730;-80
2023/07/15 08:42:08;;;;;;;3.72;1.85;;;;;26.30;100078.00;;;;10098060;29;20225;-78
2023/07/15 08:47:12;;;;;;;3.05;1.80;;;;;26.50;100062.00;;;;10096825;29;20200;-75
2023/07/15 08:52:17;;;;;;;4.88;1.77;;;;;25.90;100080.00;;;;10095956;29;20203;-75
2023/07/15 08:57:23;;;;;;;4.13;1.70;;;;;25.70;100084.00;;;;10096957;29;20248;-80
2023/07/15 09:02:24;;;;;;;3.80;1.85;;;;;26.10;100103.00;;;;10098041;29;20211;-74
2023/07/15 09:07:26;;;;;;;3.33;1.90;;;;;25.60;100111.00;;;;10080613;29;20710;-74
2023/07/15 09:12:28;;;;;;;4.15;1.77;;;;;25.40;100136.00;;;;10096745;29;20774;-78
2023/07/15 09:17:29;;;;;;;4.88;1.50;;;;;25.10;100130.00;;;;10097955;29;20251;-80
2023/07/15 09:22:31;;;;;;;3.03;1.77;;;;;24.60;100134.00;;;;10103456;29;20635;-79
2023/07/15 09:27:32;;;;;;;3.63;1.73;;;;;24.40;100132.00;;;;10104531;29;20615;-78
2023/07/15 09:32:33;;;;;;;4.80;1.75;;;;;24.20;100104.00;;;;10103340;29;20219;-74
2023/07/15 09:37:35;;;;;;;3.85;1.98;;;;;24.10;100102.00;;;;10086710;29;20568;-79
2023/07/15 09:42:50;;;;;;;3.35;1.70;;;;;23.60;100099.00;;;;10102718;29;20291;-74
2023/07/15 09:47:51;;;;;;;3.35;1.88;;;;;23.60;100104.00;;;;10101923;29;20203;-76
2023/07/15 09:52:54;;;;;;;3.00;2.00;;;;;24.10;100094.00;;;;10101530;29;20200;-74
2023/07/15 09:58:10;;;;;;;2.20;2.00;;;;;24.90;100108.00;;;;10102087;29;20224;-79
2023/07/15 10:03:20;;;;;;;3.00;1.80;;;;;25.50;100091.00;;;;10102459;29;20248;-74
2023/07/15 10:08:24;;;;;;;2.78;1.73;;;;;25.00;100100.00;;;;10100459;29;20212;-74
2023/07/15 10:13:25;;;;;;;4.45;1.67;;;;;25.10;100098.00;;;;10102862;29;20227;-75
2023/07/15 10:18:31;;;;;;;2.92;1.83;;;;;24.70;100093.00;;;;10101238;29;20227;-74
2023/07/15 10:23:33;;;;;;;3.25;1.85;;;;;24.70;100085.00;;;;10102131;29;20200;-74
2023/07/15 10:28:39;;;;;;;2.67;1.73;;;;;25.20;100089.00;;;;10100720;29;20201;-78
2023/07/15 10:34:04;;;;;;;2.28;1.90;;;;;26.30;100080.00;;;;10099680;29;20224;-79
2023/07/15 10:39:10;;;;;;;3.13;1.77;;;;;27.80;100082.00;;;;10100117;29;20220;-82
2023/07/15 10:44:15;;;;;;;2.75;1.38;;;;;30.10;100085.00;;;;10100549;29;20631;-75
2023/07/15 10:49:18;;;;;;;2.03;1.50;;;;;29.60;100096.00;;;;10099433;29;20204;-75
2023/07/15 10:54:21;;;;;;;2.20;1.52;;;;;29.50;100095.00;;;;10098859;29;20204;-75
2023/07/15 10:59:31;;;;;;;2.17;1.30;;;;;28.90;100089.00;;;;10100403;29;20223;-80
2023/07/15 11:04:35;;;;;;;3.70;1.40;;;;;29.70;100066.00;;;;10101115;29;20679;-82
2023/07/15 11:09:38;;;;;;;2.92;1.60;;;;;31.20;100067.00;;;;10099863;29;20640;-75
2023/07/15 11:14:42;;;;;;;3.70;1.55;;;;;31.80;100061.00;;;;10099766;29;20228;-80
2023/07/15 11:19:44;;;;;;;2.13;1.50;;;;;33.30;100062.00;;;;10099869;29;20227;-76
2023/07/15 11:24:48;;;;;;;1.73;1.25;;;;;32.70;100056.00;;;;10099544;29;20674;-74
2023/07/15 11:29:59;;;;;;;2.70;1.70;;;;;33.20;100050.00;;;;10098275;29;20233;-77
2023/07/15 11:35:11;;;;;;;1.73;1.30;;;;;33.00;100047.00;;;;10099271;29;20205;-79
2023/07/15 11:40:18;;;;;;;1.70;1.45;;;;;33.20;100040.00;;;;10098747;29;20745;-79
2023/07/15 11:45:22;;;;;;;3.40;1.40;;;;;32.30;100038.00;;;;10100498;29;20232;-78
2023/07/15 11:50:27;;;;;;;2.47;1.50;;;;;32.10;100034.00;;;;10100068;29;20220;-80
2023/07/15 11:55:29;;;;;;;3.15;1.60;;;;;32.20;100063.00;;;;10099574;29;20663;-79
2023/07/15 12:00:34;;;;;;;2.33;1.30;;;;;32.50;100038.00;;;;10099294;29;20202;-78
2023/07/15 12:05:48;;;;;;;2.80;1.65;;;;;32.40;100038.00;;;;10099743;29;20203;-75
2023/07/15 12:10:51;;;;;;;5.93;1.90;;;;;32.70;100042.00;;;;10099278;29;20579;-79
2023/07/15 12:15:52;;;;;;;7.85;1.63;;;;;32.40;100026.00;;;;10096904;29;20671;-75
2023/07/15 12:20:54;;;;;;;2.63;1.50;;;;;33.30;100050.00;;;;10098164;29;20199;-75
2023/07/15 12:25:55;;;;;;;2.65;1.30;;;;;33.00;100036.00;;;;10098588;29;20252;-82
2023/07/15 12:30:56;;;;;;;3.00;1.67;;;;;33.50;100034.00;;;;10098027;29;20204;-77
2023/07/15 12:35:58;;;;;;;2.30;1.75;;;;;33.70;100026.00;;;;10098211;29;20247;-74
2023/07/15 12:41:01;;;;;;;4.80;1.50;;;;;33.60;100035.00;;;;10096855;29;20286;-75
2023/07/15 12:46:03;;;;;;;5.10;1.45;;;;;33.50;100016.00;;;;10096991;29;20613;-75
2023/07/15 12:51:05;;;;;;;3.00;1.73;;;;;33.60;100017.00;;;;10098926;29;20561;-77
2023/07/15 12:56:11;;;;;;;2.70;1.35;;;;;33.30;100004.00;;;;10104299;29;20239;-76
2023/07/15 13:01:12;;;;;;;1.30;1.05;;;;;33.10;99984.00;;;;10104229;29;20600;-77
2023/07/15 13:06:14;;;;;;;2.47;1.20;;;;;33.50;99981.00;;;;10103640;29;20211;-77
2023/07/15 13:11:16;;;;;;;1.85;1.35;;;;;33.60;99968.00;;;;10103725;29;20599;-78
2023/07/15 13:16:18;;;;;;;6.20;1.75;;;;;33.20;99962.00;;;;10103206;29;20220;-75
2023/07/15 13:21:20;;;;;;;2.47;1.40;;;;;32.80;99963.00;;;;10103821;29;20209;-75
2023/07/15 13:26:23;;;;;;;3.47;1.50;;;;;32.70;99979.00;;;;10102076;29;20719;-75
2023/07/15 13:31:24;;;;;;;2.70;1.65;;;;;32.10;99964.00;;;;10102635;29;20212;-75
2023/07/15 13:36:26;;;;;;;2.75;1.50;;;;;32.40;99962.00;;;;10102537;29;20216;-77
2023/07/15 13:41:27;;;;;;;3.65;1.85;;;;;32.30;99978.00;;;;10102824;29;20215;-75
2023/07/15 13:46:28;;;;;;;1.58;1.35;;;;;31.80;99986.00;;;;10101014;29;20252;-76
2023/07/15 13:51:30;;;;;;;4.43;1.63;;;;;31.50;99981.00;;;;10100975;29;20260;-76
2023/07/15 13:56:31;;;;;;;6.03;1.75;;;;;31.70;99957.00;;;;10070198;29;20228;-76
2023/07/15 14:01:32;;;;;;;2.40;1.58;;;;;31.50;99966.00;;;;10101914;29;20592;-75
2023/07/15 14:06:35;;;;;;;6.72;2.10;;;;;31.70;99949.00;;;;10101658;29;20202;-77
2023/07/15 14:11:36;;;;;;;2.22;1.50;;;;;31.00;99955.00;;;;10102592;29;20200;-78
2023/07/15 14:16:37;;;;;;;3.40;1.77;;;;;30.80;99952.00;;;;10101386;29;20216;-74
2023/07/15 14:21:39;;;;;;;2.88;1.80;;;;;31.40;99961.00;;;;10103236;29;20210;-78
2023/07/15 14:26:40;;;;;;;3.42;1.77;;;;;31.10;99951.00;;;;10101677;29;20208;-79
2023/07/15 14:31:41;;;;;;;3.95;1.60;;;;;31.90;99940.00;;;;10100628;29;20208;-82
2023/07/15 14:36:42;;;;;;;3.13;1.52;;;;;32.30;99932.00;;;;10101602;29;20287;-76
2023/07/15 14:41:44;;;;;;;2.67;1.60;;;;;31.90;99941.00;;;;10101335;29;20200;-79
2023/07/15 14:46:46;;;;;;;3.58;1.67;;;;;31.00;99952.00;;;;10100186;29;20196;-79
2023/07/15 14:51:47;;;;;;;5.28;1.85;;;;;30.00;99951.00;;;;10101486;29;20200;-74
2023/07/15 14:56:49;;;;;;;4.43;1.80;;;;;30.60;99931.00;;;;10100468;29;20713;-79
2023/07/15 15:01:50;;;;;;;4.35;1.80;;;;;30.20;99938.00;;;;10100770;29;20208;-78
2023/07/15 15:06:52;;;;;;;2.72;1.80;;;;;29.80;99925.00;;;;10084416;29;20207;-74
2023/07/15 15:11:54;;;;;;;3.38;1.73;;;;;29.30;99908.00;;;;10100015;29;20678;-79
2023/07/15 15:16:55;;;;;;;2.67;1.90;;;;;28.00;99940.00;;;;10098092;29;20355;-80
2023/07/15 15:21:57;;;;;;;5.15;2.20;;;;;27.10;99966.00;;;;10100431;29;20196;-75
2023/07/15 15:26:58;;;;;;;7.72;2.03;;;;;25.30;99976.00;;;;10099495;29;20192;-79
2023/07/15 15:32:00;;;;;;;9.57;2.40;;;;;23.50;100002.00;;;;10098563;29;20207;-74
2023/07/15 15:37:01;;;;;;;7.45;2.53;;;;;22.50;100007.00;;;;10098133;29;20228;-76
2023/07/15 15:42:03;;;;;;;8.43;2.22;;;;;24.30;99961.00;;;;10099659;29;20185;-76
2023/07/15 15:47:04;;;;;;;7.43;2.63;;;;;23.80;99965.00;;;;10098827;29;20200;-74
2023/07/15 15:52:06;;;;;;;4.47;2.03;;;;;23.40;99969.00;;;;10099557;29;20275;-74
2023/07/15 15:57:07;;;;;;;3.70;2.50;;;;;22.80;99993.00;;;;10096805;29;20240;-79
2023/07/15 16:02:08;;;;;;;6.00;2.60;;;;;21.90;99983.00;;;;10098501;29;20291;-74
2023/07/15 16:07:10;;;;;;;4.22;2.05;;;;;21.10;99978.00;;;;10098788;29;20208;-76
2023/07/15 16:12:11;;;;;;;9.73;2.60;;;;;20.80;99995.00;;;;10097168;29;20207;-75
2023/07/15 16:17:12;;;;;;;9.25;2.72;;;;;21.00;100032.00;;;;10098299;29;20242;-75
2023/07/15 16:22:13;;;;;;;5.25;2.20;;;;;21.20;100008.00;;;;10097024;29;20223;-74
2023/07/15 16:27:15;;;;;;;4.22;2.22;;;;;21.30;100025.00;;;;10096144;29;20211;-75
2023/07/15 16:32:16;;;;;;;10.95;2.25;;;;;21.60;100042.00;;;;10097725;29;20346;-75
2023/07/15 16:37:18;;;;;;;6.82;2.80;;;;;21.60;100035.00;;;;10098054;29;20352;-74
2023/07/15 16:42:19;;;;;;;11.68;3.88;;;;;21.10;100045.00;;;;10097388;29;20562;-77
2023/07/15 16:47:21;;;;;;;8.45;3.08;;;;;20.70;100006.00;;;;10097127;29;20228;-75
2023/07/15 16:52:22;;;;;;;5.00;2.60;;;;;20.80;100011.00;;;;10097698;29;20204;-73
2023/07/15 16:57:25;;;;;;;12.45;3.15;;;;;20.70;100007.00;;;;10096983;29;20241;-78
2023/07/15 17:02:27;;;;;;;6.85;2.90;;;;;20.50;100052.00;;;;10098837;29;20207;-74
2023/07/15 17:07:29;;;;;;;6.95;2.78;;;;;20.20;100063.00;;;;10098381;29;20200;-73
2023/07/15 17:12:31;;;;;;;9.95;3.38;;;;;20.00;100076.00;;;;10097074;29;20220;-74
2023/07/15 17:17:33;;;;;;;7.60;3.42;;;;;19.90;100029.00;;;;10096925;29;20239;-73
2023/07/15 17:22:34;;;;;;;6.70;3.00;;;;;19.90;100052.00;;;;10080374;29;20615;-78
2023/07/15 17:27:35;;;;;;;6.95;2.90;;;;;19.60;100089.00;;;;10095245;29;20663;-74
2023/07/15 17:32:36;;;;;;;22.23;4.32;;;;;19.30;100124.00;;;;10096926;29;20291;-72
2023/07/15 17:37:38;;;;;;;6.75;3.22;;;;;19.50;100113.00;;;;10096605;29;20216;-73
2023/07/15 17:42:39;;;;;;;7.45;3.95;;;;;19.50;100120.00;;;;10103066;29;20211;-73
2023/07/15 17:47:40;;;;;;;10.88;5.70;;;;;19.50;100128.00;;;;10102179;29;20207;-73
2023/07/15 17:52:42;;;;;;;9.55;4.50;;;;;19.40;100127.00;;;;10101476;29;20196;-73
2023/07/15 17:57:43;;;;;;;5.72;3.45;;;;;19.40;100111.00;;;;10102415;29;20579;-74
2023/07/15 18:02:44;;;;;;;6.93;3.85;;;;;19.30;100103.00;;;;10102543;29;20536;-74
2023/07/15 18:07:46;;;;;;;7.97;3.50;;;;;19.70;100088.00;;;;10102600;29;20647;-79
2023/07/15 18:12:47;;;;;;;8.30;2.88;;;;;20.20;100108.00;;;;10102408;29;20260;-79
2023/07/15 18:17:48;;;;;;;18.85;3.10;;;;;20.80;100108.00;;;;10101231;29;20227;-74
2023/07/15 18:22:50;;;;;;;4.18;3.00;;;;;21.10;100090.00;;;;10101090;29;20212;-73
2023/07/15 18:27:51;;;;;;;6.75;2.72;;;;;20.70;100103.00;;;;10101903;29;20201;-72
2023/07/15 18:32:52;;;;;;;5.88;2.58;;;;;20.10;100101.00;;;;10100907;29;20667;-72
2023/07/15 18:37:54;;;;;;;7.03;3.25;;;;;19.70;100102.00;;;;10100973;29;20218;-74
2023/07/15 18:42:55;;;;;;;5.32;2.60;;;;;19.40;100105.00;;;;10100960;29;20284;-74
2023/07/15 18:47:56;;;;;;;8.07;2.90;;;;;19.30;100119.00;;;;10100882;29;20244;-73
2023/07/15 18:52:57;;;;;;;7.35;3.20;;;;;19.40;100129.00;;;;10100587;29;20715;-72
2023/07/15 18:57:59;;;;;;;6.68;3.53;;;;;19.50;100126.00;;;;10099270;29;20220;-72
2023/07/15 19:03:00;;;;;;;4.53;3.25;;;;;19.70;100146.00;;;;10100318;29;20540;-72
2023/07/15 19:08:01;;;;;;;6.88;3.70;;;;;20.00;100158.00;;;;10101067;29;20219;-79
2023/07/15 19:13:03;;;;;;;6.75;3.28;;;;;20.20;100159.00;;;;10101035;29;20264;-75
2023/07/15 19:18:04;;;;;;;5.97;3.40;;;;;20.20;100156.00;;;;10098744;29;20269;-73
2023/07/15 19:23:05;;;;;;;5.32;2.70;;;;;20.00;100169.00;;;;10099695;29;20604;-74
2023/07/15 19:28:07;;;;;;;8.65;3.47;;;;;19.80;100171.00;;;;10099935;29;20246;-74
2023/07/15 19:33:08;;;;;;;13.15;3.35;;;;;19.60;100169.00;;;;10099403;29;20710;-73
2023/07/15 19:38:10;;;;;;;6.97;2.90;;;;;19.20;100182.00;;;;10098831;29;20228;-75
2023/07/15 19:43:14;;;;;;;6.97;2.55;;;;;18.90;100193.00;;;;10099431;29;20283;-75
2023/07/15 19:48:15;;;;;;;6.28;3.00;;;;;18.90;100193.00;;;;10099397;29;20244;-79
2023/07/15 19:53:17;;;;;;;7.13;2.95;;;;;18.70;100200.00;;;;10083836;29;20192;-72
2023/07/15 19:58:18;;;;;;;6.82;2.63;;;;;18.50;100216.00;;;;10099286;29;20231;-74
2023/07/15 20:03:20;;;;;;;10.02;2.90;;;;;18.10;100214.00;;;;10081489;29;20353;-73
2023/07/15 20:08:22;;;;;;;6.20;2.75;;;;;17.70;100224.00;;;;10099607;29;20559;-75
2023/07/15 20:13:23;;;;;;;7.60;2.63;;;;;17.40;100226.00;;;;10098928;29;20579;-74
2023/07/15 20:18:24;;;;;;;8.68;2.88;;;;;17.20;100232.00;;;;10096887;29;20224;-73
2023/07/15 20:23:25;;;;;;;9.68;2.75;;;;;17.10;100238.00;;;;10098363;29;20264;-75
2023/07/15 20:28:27;;;;;;;8.23;2.53;;;;;17.10;100252.00;;;;10096941;29;20218;-79
2023/07/15 20:33:29;;;;;;;8.13;2.63;;;;;17.10;100263.00;;;;10098335;29;20207;-75
2023/07/15 20:38:30;;;;;;;5.97;2.60;;;;;17.10;100270.00;;;;10097890;29;20224;-73
2023/07/15 20:43:32;;;;;;;9.18;2.60;;;;;17.10;100280.00;;;;10096774;29;20651;-72
2023/07/15 20:48:33;;;;;;;10.93;2.95;;;;;17.00;100282.00;;;;10097388;29;20291;-72
2023/07/15 20:53:37;;;;;;;5.47;1.77;;;;;16.80;100290.00;;;;10097665;29;20197;-73
2023/07/15 20:58:38;;;;;;;6.25;2.47;;;;;16.60;100287.00;;;;10097317;29;20315;-72
2023/07/15 21:03:39;;;;;;;13.13;4.03;;;;;16.50;100297.00;;;;10096769;29;20204;-72
2023/07/15 21:08:41;;;;;;;6.50;2.38;;;;;16.30;100296.00;;;;10097336;29;20200;-73
2023/07/15 21:13:42;;;;;;;6.70;2.15;;;;;16.20;100294.00;;;;10100701;29;20220;-74
2023/07/15 21:18:46;;;;;;;9.40;2.40;;;;;16.10;100310.00;;;;10102341;29;20223;-73
2023/07/15 21:23:47;;;;;;;6.05;2.33;;;;;15.90;100317.00;;;;10102267;29;20275;-73
2023/07/15 21:28:48;;;;;;;11.05;2.83;;;;;15.80;100323.00;;;;10104312;29;20196;-73
2023/07/15 21:33:49;;;;;;;9.93;2.63;;;;;15.80;100324.00;;;;10103689;29;20204;-72
2023/07/15 21:38:51;;;;;;;5.50;2.00;;;;;15.70;100335.00;;;;10103618;29;20223;-72
2023/07/15 21:43:53;;;;;;;7.82;2.28;;;;;15.70;100346.00;;;;10102148;29;20658;-72
2023/07/15 21:48:54;;;;;;;9.70;2.42;;;;;15.60;100355.00;;;;10103737;29;20208;-78
2023/07/15 21:53:55;;;;;;;6.68;2.05;;;;;15.50;100348.00;;;;10102740;29;20192;-72
2023/07/15 21:58:57;;;;;;;6.53;2.00;;;;;15.40;100346.00;;;;10102933;29;20220;-72
2023/07/15 22:03:58;;;;;;;9.07;2.20;;;;;15.30;100357.00;;;;10101173;29;20197;-72
2023/07/15 22:08:59;;;;;;;9.05;2.00;;;;;15.20;100347.00;;;;10100781;29;20211;-73
2023/07/15 22:14:02;;;;;;;5.07;1.83;;;;;15.20;100351.00;;;;10101545;29;20677;-72
2023/07/15 22:19:04;;;;;;;6.95;2.08;;;;;15.20;100359.00;;;;10101422;29;20228;-73
2023/07/15 22:24:05;;;;;;;4.75;1.98;;;;;15.10;100374.00;;;;10084769;29;20217;-72
2023/07/15 22:29:07;;;;;;;7.13;2.70;;;;;15.00;100371.00;;;;10100198;29;20280;-74
2023/07/15 22:34:08;;;;;;;11.35;2.80;;;;;14.90;100380.00;;;;10101911;29;20274;-79
2023/07/15 22:39:09;;;;;;;7.53;2.55;;;;;14.90;100372.00;;;;10100530;29;20232;-72
2023/07/15 22:44:11;;;;;;;11.60;2.67;;;;;14.90;100376.00;;;;10101303;29;20200;-73
2023/07/15 22:49:12;;;;;;;9.38;2.65;;;;;14.90;100388.00;;;;10100758;29;20204;-79
2023/07/15 22:54:13;;;;;;;7.68;2.50;;;;;14.90;100383.00;;;;10100642;29;20204;-73
2023/07/15 22:59:15;;;;;;;8.30;2.10;;;;;14.90;100392.00;;;;10100557;29;20224;-78
2023/07/15 23:04:16;;;;;;;10.70;2.60;;;;;14.90;100387.00;;;;10099748;29;20208;-73
2023/07/15 23:09:17;;;;;;;11.38;2.10;;;;;15.00;100409.00;;;;10098541;29;20188;-72
2023/07/15 23:14:21;;;;;;;13.27;2.42;;;;;15.00;100410.00;;;;10099570;29;20216;-76
2023/07/15 23:19:22;;;;;;;11.45;2.42;;;;;14.90;100418.00;;;;10100521;29;20228;-72
2023/07/15 23:24:23;;;;;;;13.73;2.80;;;;;15.00;100420.00;;;;10098619;29;20215;-72
2023/07/15 23:29:25;;;;;;;14.07;2.90;;;;;15.00;100421.00;;;;10099032;29;20537;-73
2023/07/15 23:34:27;;;;;;;18.38;3.15;;;;;15.00;100425.00;;;;10099511;29;20693;-76
2023/07/15 23:39:28;;;;;;;13.20;2.63;;;;;15.00;100418.00;;;;10098683;29;20267;-79
2023/07/15 23:44:29;;;;;;;15.60;3.05;;;;;15.00;100417.00;;;;10101355;29;20714;-77
2023/07/15 23:49:31;;;;;;;10.57;2.53;;;;;15.00;100417.00;;;;10100912;29;20231;-73
2023/07/15 23:54:34;;;;;;;8.40;2.60;;;;;15.00;100420.00;;;;10098771;29;20595;-72
2023/07/15 23:59:35;;;;;;;13.63;2.50;;;;;15.00;100420.00;;;;10098999;29;20310;-72
